KHTL/HTL METAR and TAF weather

Enter ICAO airport designator
Station Type Date Time Source
KHTL METAR 2019/12/08 16:53 UTC NOAA

KHTL 081653Z AUTO 20010G17KT 10SM OVC016 02/M01 A2981 RMK AO2 SLP109 T00221011


Station Type Date Time Source
KHTL Decoded METAR 2019/12/08 16:53 UTC NOAA

ROSCOMMON COUNTY AIRPORT, MI, United States (KHTL) 44-21N 084-40W 351M
Dec 08, 2019 - 11:53 AM EST / 2019.12.08 1653 UTC
Wind: from the SSW (200 degrees) at 12 MPH (10 KT) gusting to 20 MPH (17 KT):0
Visibility: 10 mile(s):0
Sky conditions: overcast
Temperature: 36.0 F (2.2 C)
Dew Point: 30.0 F (-1.1 C)
Relative Humidity: 78%
Pressure (altimeter): 29.81 in. Hg (1009 hPa)
ob: KHTL 081653Z AUTO 20010G17KT 10SM OVC016 02/M01 A2981 RMK AO2 SLP109 T00221011
cycle: 17

Station Type Date Time Source
KHTL TAF UTC NOAA

Error!

Example: see airport list